Airfield :
LOGIN :

Register | Disclaimer

   EN    FR    IT 

 










Legend :    VFR   Marginal VFR   IFR   Intensive IFR   Very Intensive IFR
Visi :
Ceiling :
>= 8 km
>= 3000ft
5 to 8 km
1000 to 3000 ft
1500m to 5 km
500 to 1000 ft
800 to 1500m
200 to 500 ft
< 800m
< 200 ft
Symbols :   Thunderstorms  Fog  Heavy snow  Heavy precipitations  Wind > 20 kt
SIGMETs :     Misc.  Thunderstorms  Icing  Turbulence  Mountain Waves  Volcanic Ashes






- Airport Elevation : 290 ft
- IATA code : LAI


LFRO - Lannion

CURRENT METAR :
  • 080300Z AUTO 25010KT 9999 -RA BKN031 BKN056 BKN140 05/02 Q0996

EXPIRED METARs :
  • 080230Z AUTO 21010KT 9999 FEW048/// SCT074/// BKN096/// ///TCU 05/03 Q0995
  • 080200Z AUTO 25016KT 9000 -RA FEW015 SCT020 BKN026 05/03 Q0996
  • 080130Z AUTO 25012KT 5000 RA BR SCT019/// BKN025/// BKN031/// ///TCU 04/03 Q0995
  • 080100Z AUTO 26015KT 5000 RA BR FEW016 SCT022 BKN028 03/02 Q0995
  • 080030Z AUTO 23015KT 9999 ///TCU 05/03 Q0995

Expired Forecast.



MET'MAP, your aeronautical weather chart ! - Copyright ORBIFLY December 2007 - Disclaimer

ORBIFLY MET'MAP TEAM :

Programming & Development : Alexandra Zaïnal
Concept & original design : Baudouin d'Aumeries
Assistance for programming : Marc-Olivier Méhu
Technical & hardware support : Manuel Goepfert

Contact : metmap@orbifly.com




SOURCES & CREDITS :

   NOAA